createdAt,value
2018-03-30T00:03:42.802Z,18.17
2018-03-30T00:07:45.330Z,20.20
2018-03-30T00:11:47.843Z,19.43
2018-03-30T00:15:50.367Z,19.10
2018-03-30T00:19:52.898Z,20.03
2018-03-30T00:23:55.429Z,22.57
2018-03-30T00:27:57.957Z,19.30
2018-03-30T00:32:00.475Z,23.77
2018-03-30T00:36:03.772Z,24.03
2018-03-30T00:40:06.310Z,21.77
2018-03-30T00:44:08.849Z,23.67
2018-03-30T00:48:14.175Z,23.03
2018-03-30T00:52:16.688Z,24.10
2018-03-30T00:56:19.981Z,22.53
2018-03-30T01:00:23.272Z,21.70
2018-03-30T01:04:25.801Z,21.57
2018-03-30T01:08:28.327Z,21.33
2018-03-30T01:12:30.946Z,22.30
2018-03-30T01:16:34.246Z,24.30
2018-03-30T01:20:37.536Z,23.57
2018-03-30T01:24:40.055Z,22.03
2018-03-30T01:28:42.579Z,23.53
2018-03-30T01:32:45.085Z,22.57
2018-03-30T01:36:49.125Z,24.57
2018-03-30T01:40:52.415Z,23.60
2018-03-30T01:44:55.722Z,23.50
2018-03-30T01:48:59.008Z,23.43
2018-03-30T01:53:01.552Z,23.03
2018-03-30T01:57:04.060Z,24.03
2018-03-30T02:01:06.647Z,23.53
2018-03-30T02:05:09.128Z,24.90
2018-03-30T02:09:11.653Z,26.33
2018-03-30T02:13:14.176Z,25.73
2018-03-30T02:17:16.694Z,27.27
2018-03-30T02:21:19.226Z,25.07
2018-03-30T02:25:21.749Z,25.43
2018-03-30T02:29:24.281Z,24.73
2018-03-30T02:33:27.571Z,27.40
2018-03-30T02:37:30.859Z,26.43
2018-03-30T02:41:33.391Z,25.43
2018-03-30T02:45:35.914Z,26.87
2018-03-30T02:49:38.437Z,26.97
2018-03-30T02:53:41.728Z,27.43
2018-03-30T02:57:44.997Z,27.93
2018-03-30T03:01:47.531Z,26.60
2018-03-30T03:05:50.056Z,26.00
2018-03-30T03:09:52.684Z,26.67
2018-03-30T03:13:55.976Z,25.47
2018-03-30T03:17:58.493Z,23.50
2018-03-30T03:22:01.022Z,25.27
2018-03-30T03:26:03.548Z,24.13
2018-03-30T03:30:06.841Z,25.03
2018-03-30T03:34:09.373Z,25.10
2018-03-30T03:38:11.885Z,25.20
2018-03-30T03:42:14.414Z,23.27
2018-03-30T03:46:17.706Z,23.70
2018-03-30T03:50:21.006Z,23.47
2018-03-30T03:54:24.303Z,23.67
2018-03-30T03:58:26.804Z,23.20
2018-03-30T04:02:30.096Z,23.83
2018-03-30T04:06:33.384Z,23.33
2018-03-30T04:10:35.908Z,23.43
2018-03-30T04:14:38.437Z,24.17
2018-03-30T04:18:40.963Z,23.20
2018-03-30T04:22:43.474Z,22.33
2018-03-30T04:26:46.004Z,21.87
2018-03-30T04:30:48.527Z,23.37
2018-03-30T04:34:51.049Z,22.90
2018-03-30T04:38:53.581Z,23.27
2018-03-30T04:42:56.863Z,22.40
2018-03-30T04:46:59.399Z,24.73
2018-03-30T04:51:01.928Z,23.67
2018-03-30T04:55:04.458Z,23.67
2018-03-30T04:59:06.988Z,24.53
2018-03-30T05:03:09.505Z,23.23
2018-03-30T05:07:12.812Z,23.03
2018-03-30T05:11:16.108Z,23.10
2018-03-30T05:15:19.409Z,23.07
2018-03-30T05:19:22.811Z,22.63
2018-03-30T05:23:26.096Z,21.40
2018-03-30T05:27:28.919Z,21.60
2018-03-30T05:31:31.487Z,21.97
2018-03-30T05:35:34.797Z,23.10
2018-03-30T05:39:38.089Z,22.17
2018-03-30T05:43:41.379Z,21.70
2018-03-30T05:47:43.917Z,22.07
2018-03-30T05:51:46.439Z,22.83
2018-03-30T05:55:48.969Z,22.07
2018-03-30T05:59:51.504Z,22.87
2018-03-30T06:03:54.033Z,22.27
2018-03-30T06:07:57.336Z,21.97
2018-03-30T06:12:00.664Z,22.43
2018-03-30T06:16:03.194Z,22.33
2018-03-30T06:20:05.732Z,22.47
2018-03-30T06:24:08.237Z,21.70
2018-03-30T06:28:10.869Z,21.20
2018-03-30T06:32:13.429Z,20.17
2018-03-30T06:36:15.974Z,21.83
2018-03-30T06:40:18.505Z,21.33
2018-03-30T06:44:21.013Z,20.33
2018-03-30T06:48:24.314Z,20.33
2018-03-30T06:52:26.859Z,20.57
2018-03-30T06:56:29.449Z,20.70
2018-03-30T07:00:31.989Z,20.43
2018-03-30T07:04:34.513Z,20.70
2018-03-30T07:08:37.308Z,20.23
2018-03-30T07:12:40.014Z,20.00
2018-03-30T07:16:42.555Z,19.63
2018-03-30T07:20:45.106Z,18.97
2018-03-30T07:24:48.401Z,18.67
2018-03-30T07:28:53.352Z,19.37
2018-03-30T07:32:56.654Z,19.47
2018-03-30T07:36:59.944Z,20.13
2018-03-30T07:41:03.241Z,20.43
2018-03-30T07:45:05.781Z,20.73
2018-03-30T07:49:08.878Z,19.37
2018-03-30T07:53:11.480Z,19.50
2018-03-30T07:57:14.019Z,20.37
2018-03-30T08:01:16.548Z,20.53
2018-03-30T08:05:19.081Z,20.50
2018-03-30T08:09:21.601Z,20.80
2018-03-30T08:13:24.146Z,19.23
2018-03-30T08:17:27.454Z,18.80
2018-03-30T08:21:29.985Z,19.33
2018-03-30T08:25:32.511Z,20.80
2018-03-30T08:29:36.365Z,18.90
2018-03-30T08:33:38.944Z,19.67
2018-03-30T08:37:41.502Z,18.83
2018-03-30T08:41:45.696Z,19.20
2018-03-30T08:45:49.885Z,18.93
2018-03-30T08:49:54.048Z,20.03
2018-03-30T08:53:58.233Z,19.17
2018-03-30T08:58:02.467Z,18.33
2018-03-30T09:02:06.643Z,18.80
2018-03-30T09:06:10.830Z,18.40
2018-03-30T09:10:14.994Z,18.23
2018-03-30T09:14:19.175Z,18.70
2018-03-30T09:18:23.383Z,16.10
2018-03-30T09:22:27.733Z,17.70
2018-03-30T09:26:32.108Z,16.30
2018-03-30T09:30:36.302Z,16.77
2018-03-30T09:34:40.493Z,15.43
2018-03-30T09:38:44.736Z,14.70
2018-03-30T09:42:48.893Z,15.37
2018-03-30T09:46:53.071Z,13.40
2018-03-30T09:50:57.257Z,13.23
2018-03-30T09:55:01.415Z,11.77
2018-03-30T09:59:05.602Z,11.70
2018-03-30T10:03:09.789Z,12.60
2018-03-30T10:07:13.968Z,11.73
2018-03-30T10:11:18.145Z,14.10
2018-03-30T10:15:22.308Z,14.70
2018-03-30T10:19:26.877Z,14.93
2018-03-30T10:23:31.063Z,13.67
2018-03-30T10:27:35.260Z,13.93
2018-03-30T10:31:39.439Z,12.57
2018-03-30T10:35:43.609Z,13.37
2018-03-30T10:39:47.801Z,13.27
2018-03-30T10:43:51.992Z,12.97
2018-03-30T10:47:56.171Z,14.27
2018-03-30T10:52:00.356Z,12.03
2018-03-30T10:56:04.516Z,12.53
2018-03-30T11:00:08.696Z,13.37
2018-03-30T11:04:12.872Z,13.77
2018-03-30T11:08:17.063Z,12.97
2018-03-30T11:12:21.250Z,11.23
2018-03-30T11:16:25.437Z,12.57
2018-03-30T11:20:30.418Z,11.30
2018-03-30T11:24:34.629Z,12.73
2018-03-30T11:28:38.804Z,11.77
2018-03-30T11:32:42.992Z,11.30
2018-03-30T11:36:47.172Z,11.30
2018-03-30T11:40:51.338Z,12.17
2018-03-30T11:44:57.472Z,9.13
2018-03-30T11:49:01.720Z,7.17
2018-03-30T11:53:05.917Z,9.90
2018-03-30T11:57:10.110Z,10.50
2018-03-30T12:01:14.277Z,7.40
2018-03-30T12:05:18.483Z,6.13
2018-03-30T12:09:22.681Z,10.77
2018-03-30T12:13:26.873Z,9.70
2018-03-30T12:17:31.114Z,9.67
2018-03-30T12:21:35.276Z,9.90
2018-03-30T12:25:39.459Z,10.47
2018-03-30T12:29:43.665Z,11.07
2018-03-30T12:33:47.859Z,10.90
2018-03-30T12:37:52.053Z,10.27
2018-03-30T12:41:56.240Z,10.87
2018-03-30T12:46:00.408Z,10.63
2018-03-30T12:50:04.596Z,10.33
2018-03-30T12:54:08.790Z,10.00
2018-03-30T12:58:12.973Z,10.87
2018-03-30T13:02:17.164Z,9.03
2018-03-30T13:06:21.328Z,9.43
2018-03-30T13:10:25.523Z,9.30
2018-03-30T13:14:30.519Z,4.13
2018-03-30T13:18:34.702Z,4.17
2018-03-30T13:22:38.903Z,6.47
2018-03-30T13:26:43.063Z,8.80
2018-03-30T13:30:47.244Z,8.73
2018-03-30T13:34:51.416Z,4.13
2018-03-30T13:38:55.600Z,9.07
2018-03-30T13:42:59.776Z,9.23
2018-03-30T13:47:03.970Z,8.77
2018-03-30T13:51:11.868Z,7.83
2018-03-30T13:55:16.045Z,8.73
2018-03-30T13:59:21.970Z,9.13
2018-03-30T14:03:36.044Z,8.60
2018-03-30T14:07:40.228Z,8.77
2018-03-30T14:11:45.159Z,8.37
2018-03-30T14:15:52.152Z,6.87
2018-03-30T14:19:58.041Z,8.90
2018-03-30T14:24:04.999Z,9.37
2018-03-30T14:28:10.939Z,8.77
2018-03-30T14:32:15.750Z,6.90
2018-03-30T14:36:22.587Z,5.87
2018-03-30T14:40:27.532Z,4.90
2018-03-30T14:44:31.736Z,6.13
2018-03-30T14:48:36.621Z,8.83
2018-03-30T14:52:40.795Z,10.53
2018-03-30T14:56:45.608Z,10.67
2018-03-30T15:00:49.796Z,10.57
2018-03-30T15:04:55.804Z,11.50
2018-03-30T15:09:01.659Z,11.60
2018-03-30T15:13:06.632Z,12.23
2018-03-30T15:17:14.481Z,11.90
2018-03-30T15:21:28.571Z,12.47
2018-03-30T15:25:42.713Z,12.50
2018-03-30T15:29:46.849Z,12.97
2018-03-30T15:34:06.269Z,13.07
2018-03-30T15:38:10.558Z,12.50
2018-03-30T15:42:14.750Z,11.50
2018-03-30T15:46:22.679Z,12.10
2018-03-30T15:50:26.852Z,11.83
2018-03-30T15:54:30.791Z,12.33
2018-03-30T15:58:35.003Z,12.03
2018-03-30T16:02:37.561Z,12.73
2018-03-30T16:06:40.101Z,11.90
2018-03-30T16:10:44.324Z,12.83
2018-03-30T16:14:46.861Z,12.80
2018-03-30T16:18:55.980Z,11.93
2018-03-30T16:22:58.020Z,13.10
2018-03-30T16:27:00.074Z,12.77
2018-03-30T16:31:02.110Z,12.73
2018-03-30T16:35:04.160Z,12.37
2018-03-30T16:39:07.193Z,12.83
2018-03-30T16:43:09.263Z,12.70
2018-03-30T16:47:11.285Z,13.10
2018-03-30T16:51:13.391Z,13.53
2018-03-30T16:55:15.447Z,14.23
2018-03-30T16:59:18.256Z,13.17
2018-03-30T17:03:20.329Z,14.03
2018-03-30T17:07:22.362Z,14.33
2018-03-30T17:11:24.440Z,14.47
2018-03-30T17:15:26.494Z,14.20
2018-03-30T17:19:28.548Z,14.80
2018-03-30T17:23:30.597Z,14.60
2018-03-30T17:27:32.647Z,15.40
2018-03-30T17:31:35.470Z,14.67
2018-03-30T17:35:37.520Z,14.73
2018-03-30T17:39:39.578Z,14.73
2018-03-30T17:43:41.619Z,14.47
2018-03-30T17:47:43.641Z,14.77
2018-03-30T17:51:46.454Z,14.47
2018-03-30T17:55:48.497Z,14.10
2018-03-30T17:59:51.303Z,14.13
2018-03-30T18:03:54.110Z,14.37
2018-03-30T18:07:56.132Z,14.43
2018-03-30T18:11:58.173Z,14.87
2018-03-30T18:16:00.213Z,14.87
2018-03-30T18:20:02.262Z,14.27
2018-03-30T18:24:04.314Z,14.63
2018-03-30T18:28:06.341Z,14.47
2018-03-30T18:32:08.387Z,14.30
2018-03-30T18:36:10.431Z,15.50
2018-03-30T18:40:12.484Z,15.00
2018-03-30T18:44:14.534Z,15.13
2018-03-30T18:48:16.793Z,14.93
2018-03-30T18:52:19.609Z,15.20
2018-03-30T18:56:21.654Z,14.73
2018-03-30T19:00:24.465Z,15.03
2018-03-30T19:04:26.504Z,16.10
2018-03-30T19:08:28.529Z,15.17
2018-03-30T19:12:30.594Z,15.37
2018-03-30T19:16:32.636Z,14.63
2018-03-30T19:20:35.530Z,15.67
2018-03-30T19:24:37.571Z,14.40
2018-03-30T19:28:39.588Z,15.23
2018-03-30T19:32:42.396Z,15.20
2018-03-30T19:36:44.442Z,15.50
2018-03-30T19:40:46.490Z,14.73
2018-03-30T19:44:48.653Z,15.07
2018-03-30T19:48:50.675Z,14.30
2018-03-30T19:52:53.497Z,14.87
2018-03-30T19:56:55.561Z,15.67
2018-03-30T20:00:57.617Z,16.00
2018-03-30T20:05:00.428Z,16.23
2018-03-30T20:09:02.460Z,15.73
2018-03-30T20:13:04.504Z,16.00
2018-03-30T20:17:06.543Z,16.27
2018-03-30T20:21:09.354Z,16.37
2018-03-30T20:25:11.396Z,16.30
2018-03-30T20:29:14.250Z,16.63
2018-03-30T20:33:16.280Z,16.73
2018-03-30T20:37:18.358Z,17.37
2018-03-30T20:41:20.661Z,16.50
2018-03-30T20:45:22.823Z,16.43
2018-03-30T20:49:24.927Z,16.93
2018-03-30T20:53:26.968Z,17.03
2018-03-30T20:57:29.119Z,17.23
2018-03-30T21:01:31.184Z,16.70
2018-03-30T21:05:33.246Z,17.20
2018-03-30T21:09:36.072Z,17.70
2018-03-30T21:13:38.096Z,17.60
2018-03-30T21:17:40.158Z,17.37
2018-03-30T21:21:42.196Z,18.67
2018-03-30T21:25:44.250Z,19.55
2018-03-30T21:29:47.347Z,18.50
2018-03-30T21:33:50.144Z,17.03
2018-03-30T21:37:52.268Z,17.53
2018-03-30T21:41:54.312Z,16.93
2018-03-30T21:45:56.424Z,17.50
2018-03-30T21:49:58.492Z,16.70
2018-03-30T21:54:00.515Z,17.13
2018-03-30T21:58:02.561Z,17.70
2018-03-30T22:02:05.385Z,16.20
2018-03-30T22:06:07.427Z,16.07
2018-03-30T22:10:10.610Z,15.57
2018-03-30T22:14:12.652Z,16.83
2018-03-30T22:18:14.909Z,16.30
2018-03-30T22:22:16.991Z,16.47
2018-03-30T22:26:19.034Z,15.97
2018-03-30T22:30:21.881Z,15.23
2018-03-30T22:34:23.905Z,16.07
2018-03-30T22:38:26.093Z,16.43
2018-03-30T22:42:28.409Z,15.00
2018-03-30T22:46:31.259Z,15.27
2018-03-30T22:50:33.296Z,15.50
2018-03-30T22:54:35.312Z,14.90
2018-03-30T22:58:37.353Z,14.63
2018-03-30T23:02:39.414Z,15.70
2018-03-30T23:06:41.460Z,14.53
2018-03-30T23:10:43.500Z,14.53
2018-03-30T23:14:45.528Z,14.43
2018-03-30T23:18:47.580Z,14.97
2018-03-30T23:22:49.620Z,13.93
2018-03-30T23:26:51.659Z,13.87
2018-03-30T23:30:53.714Z,13.93
2018-03-30T23:34:55.743Z,14.57
2018-03-30T23:38:57.819Z,13.80
2018-03-30T23:42:59.896Z,13.93
2018-03-30T23:47:01.929Z,14.27
2018-03-30T23:51:04.049Z,13.77
2018-03-30T23:55:06.152Z,14.10
2018-03-30T23:59:08.188Z,14.23
